Flight Track Log - Related Links

Times and Time Zones

All times are in EST time to prevent confusion due to time zone crossing. See the EMD21 flight status page for this flight to view local times or setup timezone preferences in your user account.

Time Position Orientation Groundspeed Altitude Reporting Facility
EST Latitude Longitude Course Direction KTS MPH feet Rate Location/Type
Sun 03:24:11 PM 35.0169 -94.6981 302° West 140 161 8,000  Level Memphis Center
Sun 03:25:13 PM 35.0550 -94.7153 340° North 121 139 5,300 -629 Descending Memphis Center
Sun 03:26:15 PM 35.0897 -94.7444 326° Northwest 145 167 6,700 1,355 Climbing Memphis Center
Sun 03:27:17 PM 35.1317 -94.7747 329° Northwest 146 168 8,100 677 Climbing Memphis Center
Sun 03:28:19 PM 35.1781 -94.8114 327° Northwest 188 216 8,100  Level Memphis Center
Sun 03:28:43 PM 35.1978 -94.8256 330° Northwest 199 229 8,100  Level Memphis Center
Sun 03:29:00 PM 35.2494 -94.9215 302° West  Level Estimated
Sun 03:29:45 PM 35.2489 -94.8617 330° Northwest 209 241 8,100  Level Memphis Center
Sun 03:30:47 PM 35.2992 -94.9006 328° Northwest 212 244 8,100  Level Memphis Center
Sun 03:31:49 PM 35.3494 -94.9397 328° Northwest 213 245 8,100  Level Memphis Center
Sun 03:32:51 PM 35.3986 -94.9775 328° Northwest 210 242 8,100  Level Memphis Center
Sun 03:33:53 PM 35.4583 -95.0231 328° Northwest 210 242 8,100  Level Memphis Center
Sun 03:34:55 PM 35.5089 -95.0600 329° Northwest 210 242 8,100  Level Memphis Center
Sun 03:35:57 PM 35.5589 -95.0983 328° Northwest 211 243 8,100  Level Memphis Center
Sun 03:36:59 PM 35.6081 -95.1367 328° Northwest 209 241 8,100  Level Memphis Center
Sun 03:37:50 PM 35.6489 -95.1675 328° Northwest 213 245 8,100  Level Kansas City Center
Sun 03:38:51 PM 35.6997 -95.2069 328° Northwest 213 245 8,100  Level Kansas City Center
Sun 03:40:53 PM 35.7997 -95.2847 328° Northwest 212 244 8,100  Level Fort Worth Center
Sun 03:41:58 PM 35.8531 -95.3381 321° Northwest 214 246 8,100 -190 Level Kansas City Center
Sun 03:42:59 PM 35.8414 -95.4086 258° West 212 244 7,700 -448 Descending Kansas City Center
Sun 03:43:05 PM 35.8394 -95.4197 258° West 216 249 7,600 -1,031 Descending Kansas City Center
Sun 03:44:03 PM 35.8292 -95.4817 258° West 216 249 6,600 -966 Descending Kansas City Center
Sun 03:45:03 PM 35.8186 -95.5511 259° West 210 242 5,700 -957 Descending Kansas City Center
Sun 03:45:12 PM 35.8147 -95.5650 251° West 205 236 5,500 -1,082 Descending Kansas City Center
Sun 03:46:04 PM 35.8072 -95.6219 261° West 209 241 4,600 -1,091 Descending Kansas City Center
Sun 03:46:07 PM 35.8036 -95.6308 243° Southwest 211 243 4,500 -469 Descending Kansas City Center
Sun 03:47:08 PM 35.7953 -95.6919 260° West 209 241 4,100 -197 Descending Kansas City Center
Sun 03:48:09 PM 35.7858 -95.7575 260° West 202 232 4,100  Level Kansas City Center
Sun 03:48:15 PM 35.7844 -95.7725 263° West 187 215 4,100  Level Kansas City Center
Sun 03:49:11 PM 35.7769 -95.8211 259° West 191 220 4,100  Level Kansas City Center
Sun 03:49:14 PM 35.7736 -95.8383 257° West 193 222 4,100  Level Kansas City Center
Sun 03:50:15 PM 35.7636 -95.9011 259° West 196 226 4,100  Level Kansas City Center
Sun 03:51:09 PM 35.7800 -95.9636 288° West 203 234 4,100  Level Kansas City Center
Sun 03:51:15 PM 35.7806 -95.9628 51° Northeast 203 234 4,100 -689 Level Kansas City Center
Sun 03:52:10 PM 35.8078 -96.0192 301° West 190 219 3,400 -689 Descending Kansas City Center
Sun 03:52:16 PM 35.8106 -96.0208 334° Northwest 198 228 3,400 -492 Level Kansas City Center
Sun 03:53:11 PM 35.8603 -96.0433 340° North 212 244 2,900 -469 Descending Kansas City Center
Sun 03:53:20 PM 35.8636 -96.0406 34° Northeast 206 237 2,900  Level Kansas City Center
Sun 03:54:18 PM 35.9233 -96.0200 16° North 202 232 2,900  Level Kansas City Center
Sun 03:54:21 PM 35.9178 -96.0192 173° South 201 231 2,900 -806 Level Kansas City Center
Sun 03:55:25 PM 35.9656 -96.0061 12° North 190 219 2,000 -814 Descending Kansas City Center
Sun 03:56:19 PM 36.0031 -95.9967 12° North 132 152 1,300 -800 Descending Kansas City Center
Sun 03:56:25 PM 36.0108 -95.9936 18° North 155 178 1,200 -176 Descending Kansas City Center
Sun 03:57:27 PM 36.0475 -95.9833 13° North 152 175 1,100 -97 Descending Kansas City Center

Login

Don't have an account? Register now (free) for customized features, flight alerts, and more!